Aviation Digital Data Service (ADDS)

Output produced by METARs form (1101 UTC 30 April 2017)
found at http://www.aviationweather.gov/adds/metars/
 
LQBK 301030Z 07006KT 9999 SCT037 13/02 Q1018 NOSIG
TAF LQBK 300500Z 3006/0106 VRB02KT CAVOK TX17/3014Z TN01/3006Z 
     TEMPO 3011/3017 06010KT 
     PROB30 0102/0106 0600 FG
       
LQMO 301000Z 31011KT CAVOK 18/04 Q1010
TAF LQMO 300500Z 3006/0106 33007KT CAVOK TX21/3014Z TN03/0105Z 
     PROB30 
     TEMPO 3006/3009 01015G25KT
       
LQSA 301030Z VRB03KT 9999 FEW020 BKN035 10/03 Q1016 NOSIG
TAF LQSA 300500Z 3006/0106 30005KT 7000 BKN010 TX16/3014Z TN02/0104Z 
     BECMG 3006/3008 CAVOK 
     TEMPO 0102/0106 1200 BCFG BKN004
       
LQTZ 301030Z VRB04KT 9999 SCT035 13/06 Q1017
TAF LQTZ 300500Z 3006/0106 09005KT 0200 FG VV002 TX17/3014Z TN01/3006Z 
     BECMG 3006/3008 1500 BR BKN005 
     BECMG 3008/3010 9999 NSW SCT035 
     BECMG 3020/3022 3000 BR 
     PROB40 0100/0106 0200 FG BKN002